createdAt,value
2023-05-03T00:01:14.497Z,12.87
2023-05-03T00:03:40.999Z,9.60
2023-05-03T00:06:14.990Z,14.10
2023-05-03T00:08:42.660Z,10.40
2023-05-03T00:11:09.966Z,8.73
2023-05-03T00:13:36.564Z,10.60
2023-05-03T00:16:03.080Z,11.93
2023-05-03T00:18:30.590Z,11.67
2023-05-03T00:20:58.268Z,11.90
2023-05-03T00:23:24.908Z,8.73
2023-05-03T00:25:55.235Z,10.43
2023-05-03T00:28:22.218Z,12.07
2023-05-03T00:30:48.952Z,14.13
2023-05-03T00:33:16.780Z,9.23
2023-05-03T00:35:44.223Z,11.73
2023-05-03T00:38:11.301Z,9.67
2023-05-03T00:40:37.770Z,8.97
2023-05-03T00:43:04.266Z,11.20
2023-05-03T00:45:33.401Z,10.83
2023-05-03T00:48:00.540Z,9.57
2023-05-03T00:50:27.178Z,11.90
2023-05-03T00:52:54.011Z,15.00
2023-05-03T00:55:20.767Z,11.43
2023-05-03T00:57:47.235Z,10.57
2023-05-03T01:00:14.507Z,10.97
2023-05-03T01:02:41.191Z,12.83
2023-05-03T01:05:08.068Z,11.87
2023-05-03T01:07:55.579Z,11.60
2023-05-03T01:10:44.221Z,9.10
2023-05-03T01:13:32.136Z,12.20
2023-05-03T01:16:10.845Z,9.70
2023-05-03T01:18:49.034Z,9.23
2023-05-03T01:21:18.561Z,9.07
2023-05-03T01:23:56.841Z,14.33
2023-05-03T01:26:24.318Z,9.20
2023-05-03T01:28:51.486Z,11.10
2023-05-03T01:31:41.508Z,10.23
2023-05-03T01:34:17.149Z,9.00
2023-05-03T01:36:45.053Z,8.90
2023-05-03T01:39:26.921Z,11.60
2023-05-03T01:41:54.762Z,10.23
2023-05-03T01:44:23.069Z,9.57
2023-05-03T01:46:49.901Z,8.33
2023-05-03T01:49:16.520Z,10.23
2023-05-03T01:51:43.110Z,7.07
2023-05-03T01:54:11.286Z,7.80
2023-05-03T01:56:38.088Z,7.70
2023-05-03T01:59:04.797Z,10.47
2023-05-03T02:01:31.403Z,11.50
2023-05-03T02:03:58.080Z,14.10
2023-05-03T02:06:26.108Z,7.87
2023-05-03T02:08:53.369Z,9.47
2023-05-03T02:11:21.719Z,10.53
2023-05-03T02:13:52.700Z,9.73
2023-05-03T02:16:19.320Z,13.30
2023-05-03T02:18:46.552Z,12.07
2023-05-03T02:21:14.072Z,11.23
2023-05-03T02:23:40.681Z,9.10
2023-05-03T02:26:08.041Z,9.90
2023-05-03T02:28:34.889Z,12.93
2023-05-03T02:31:02.361Z,10.50
2023-05-03T02:33:29.003Z,13.67
2023-05-03T02:35:55.950Z,10.90
2023-05-03T02:38:23.362Z,12.13
2023-05-03T02:40:50.748Z,12.87
2023-05-03T02:43:17.469Z,22.73
2023-05-03T02:45:44.533Z,22.23
2023-05-03T02:48:12.509Z,22.00
2023-05-03T02:50:39.955Z,19.23
2023-05-03T02:53:06.933Z,20.10
2023-05-03T02:55:34.662Z,18.40
2023-05-03T02:58:02.027Z,19.93
2023-05-03T03:00:28.866Z,14.83
2023-05-03T03:02:55.875Z,12.47
2023-05-03T03:05:22.828Z,14.27
2023-05-03T03:07:51.445Z,13.63
2023-05-03T03:10:18.133Z,19.80
2023-05-03T03:12:45.265Z,17.43
2023-05-03T03:15:22.141Z,15.23
2023-05-03T03:17:48.803Z,15.13
2023-05-03T03:20:15.925Z,13.50
2023-05-03T03:22:47.122Z,15.00
2023-05-03T03:25:13.734Z,18.50
2023-05-03T03:27:40.396Z,12.77
2023-05-03T03:30:09.264Z,15.10
2023-05-03T03:32:42.446Z,14.13
2023-05-03T03:35:14.202Z,14.20
2023-05-03T03:37:41.033Z,21.47
2023-05-03T03:40:08.520Z,25.67
2023-05-03T03:42:37.572Z,25.33
2023-05-03T03:45:04.862Z,18.00
2023-05-03T03:47:31.452Z,14.70
2023-05-03T03:50:01.887Z,15.00
2023-05-03T03:52:30.400Z,18.40
2023-05-03T03:54:57.084Z,21.30
2023-05-03T03:57:26.046Z,24.37
2023-05-03T03:59:52.798Z,29.73
2023-05-03T04:02:19.413Z,15.67
2023-05-03T04:04:46.764Z,15.30
2023-05-03T04:07:15.393Z,39.37
2023-05-03T04:09:42.371Z,43.33
2023-05-03T04:12:09.403Z,13.60
2023-05-03T04:14:36.116Z,24.30
2023-05-03T04:17:03.159Z,17.40
2023-05-03T04:19:29.927Z,25.53
2023-05-03T04:21:56.862Z,18.93
2023-05-03T04:24:23.981Z,53.03
2023-05-03T04:26:51.572Z,77.20
2023-05-03T04:29:25.052Z,24.17
2023-05-03T04:31:51.896Z,15.73
2023-05-03T04:34:19.037Z,38.00
2023-05-03T04:36:49.035Z,27.30
2023-05-03T04:39:16.412Z,36.17
2023-05-03T04:41:45.671Z,106.93
2023-05-03T04:44:14.356Z,24.73
2023-05-03T04:46:43.392Z,76.90
2023-05-03T04:49:10.177Z,20.60
2023-05-03T04:51:36.925Z,37.23
2023-05-03T04:54:03.521Z,15.47
2023-05-03T04:56:31.240Z,55.60
2023-05-03T04:59:08.569Z,21.60
2023-05-03T05:01:36.895Z,21.23
2023-05-03T05:04:05.363Z,38.03
2023-05-03T05:06:38.450Z,20.33
2023-05-03T05:09:07.474Z,22.40
2023-05-03T05:11:34.660Z,24.20
2023-05-03T05:14:01.271Z,34.17
2023-05-03T05:16:27.867Z,20.77
2023-05-03T05:18:54.433Z,17.20
2023-05-03T05:21:24.562Z,24.73
2023-05-03T05:23:51.125Z,41.13
2023-05-03T05:26:17.655Z,28.80
2023-05-03T05:28:44.840Z,27.57
2023-05-03T05:31:11.593Z,20.27
2023-05-03T05:33:38.981Z,47.53
2023-05-03T05:36:06.190Z,26.97
2023-05-03T05:38:33.883Z,44.07
2023-05-03T05:41:01.160Z,27.93
2023-05-03T05:43:27.686Z,27.17
2023-05-03T05:45:55.045Z,37.13
2023-05-03T05:48:22.768Z,28.33
2023-05-03T05:50:49.410Z,25.33
2023-05-03T05:53:16.423Z,23.87
2023-05-03T05:55:50.153Z,55.30
2023-05-03T05:58:17.094Z,28.93
2023-05-03T06:00:49.062Z,31.83
2023-05-03T06:03:16.701Z,40.53
2023-05-03T06:05:43.518Z,35.30
2023-05-03T06:08:10.610Z,28.73
2023-05-03T06:10:38.184Z,28.43
2023-05-03T06:13:04.861Z,30.33
2023-05-03T06:15:32.726Z,31.37
2023-05-03T06:17:59.229Z,48.73
2023-05-03T06:20:26.210Z,29.70
2023-05-03T06:22:53.539Z,33.60
2023-05-03T06:25:20.658Z,36.90
2023-05-03T06:27:49.074Z,35.03
2023-05-03T06:30:18.128Z,34.93
2023-05-03T06:32:47.547Z,37.80
2023-05-03T06:35:14.309Z,27.87
2023-05-03T06:37:40.860Z,25.50
2023-05-03T06:40:07.928Z,29.50
2023-05-03T06:42:36.413Z,28.80
2023-05-03T06:45:12.700Z,29.23
2023-05-03T06:47:42.514Z,25.90
2023-05-03T06:50:09.910Z,29.70
2023-05-03T06:52:36.424Z,23.67
2023-05-03T06:55:04.686Z,25.73
2023-05-03T06:57:31.178Z,28.70
2023-05-03T06:59:57.723Z,28.73
2023-05-03T07:02:25.869Z,32.67
2023-05-03T07:04:52.502Z,37.13
2023-05-03T07:07:19.088Z,45.47
2023-05-03T07:09:45.619Z,30.97
2023-05-03T07:12:12.162Z,29.53
2023-05-03T07:14:39.964Z,42.37
2023-05-03T07:17:06.617Z,28.83
2023-05-03T07:19:33.292Z,38.30
2023-05-03T07:21:59.840Z,38.70
2023-05-03T07:24:26.380Z,35.87
2023-05-03T07:26:53.664Z,39.93
2023-05-03T07:29:20.582Z,48.47
2023-05-03T07:31:47.273Z,40.27
2023-05-03T07:34:14.072Z,40.90
2023-05-03T07:36:40.736Z,41.93
2023-05-03T07:39:07.433Z,37.50
2023-05-03T07:41:33.959Z,42.50
2023-05-03T07:44:00.603Z,48.57
2023-05-03T07:46:27.141Z,41.40
2023-05-03T07:48:53.808Z,37.77
2023-05-03T07:51:21.041Z,44.77
2023-05-03T07:53:48.061Z,44.73
2023-05-03T07:56:14.524Z,42.43
2023-05-03T07:58:41.742Z,38.93
2023-05-03T08:01:10.087Z,36.97
2023-05-03T08:03:36.723Z,47.80
2023-05-03T08:06:03.629Z,48.43
2023-05-03T08:08:32.130Z,42.53
2023-05-03T08:10:58.697Z,46.17
2023-05-03T08:13:25.221Z,47.23
2023-05-03T08:15:51.970Z,40.73
2023-05-03T08:18:18.495Z,43.43
2023-05-03T08:20:45.197Z,45.63
2023-05-03T08:23:11.723Z,55.07
2023-05-03T08:25:38.232Z,59.80
2023-05-03T08:28:04.767Z,46.10
2023-05-03T08:30:31.537Z,55.10
2023-05-03T08:32:58.093Z,54.13
2023-05-03T08:35:25.332Z,54.43
2023-05-03T08:37:51.800Z,48.33
2023-05-03T08:40:22.323Z,52.63
2023-05-03T08:42:50.078Z,45.50
2023-05-03T08:45:17.239Z,54.57
2023-05-03T08:47:45.335Z,51.30
2023-05-03T08:50:13.871Z,48.70
2023-05-03T08:52:42.482Z,53.50
2023-05-03T08:55:09.913Z,60.13
2023-05-03T08:57:36.993Z,42.37
2023-05-03T09:00:14.372Z,70.20
2023-05-03T09:02:41.291Z,57.20
2023-05-03T09:05:17.314Z,48.20
2023-05-03T09:08:07.055Z,54.17
2023-05-03T09:10:37.829Z,37.80
2023-05-03T09:13:04.417Z,48.23
2023-05-03T09:15:31.173Z,44.20
2023-05-03T09:18:12.451Z,47.43
2023-05-03T09:20:40.877Z,41.73
2023-05-03T09:23:08.946Z,49.83
2023-05-03T09:25:52.403Z,48.53
2023-05-03T09:28:20.101Z,44.90
2023-05-03T09:30:48.206Z,47.70
2023-05-03T09:33:22.361Z,52.77
2023-05-03T09:35:59.412Z,42.63
2023-05-03T09:38:34.297Z,48.07
2023-05-03T09:41:01.522Z,57.07
2023-05-03T09:43:27.994Z,49.80
2023-05-03T09:46:08.515Z,46.23
2023-05-03T09:48:39.758Z,55.30
2023-05-03T09:51:06.839Z,43.83
2023-05-03T09:53:34.778Z,50.13
2023-05-03T09:56:06.100Z,47.10
2023-05-03T09:58:35.083Z,49.37
2023-05-03T10:01:01.808Z,49.00
2023-05-03T10:03:51.932Z,43.33
2023-05-03T10:06:44.027Z,55.40
2023-05-03T10:09:29.703Z,54.17
2023-05-03T10:12:00.172Z,39.30
2023-05-03T10:14:26.728Z,44.17
2023-05-03T10:17:02.400Z,38.50
2023-05-03T10:19:28.786Z,39.83
2023-05-03T10:22:03.345Z,40.80
2023-05-03T10:24:30.158Z,41.67
2023-05-03T10:26:57.559Z,34.80
2023-05-03T10:29:37.256Z,36.20
2023-05-03T10:32:05.328Z,43.37
2023-05-03T10:34:33.639Z,35.77
2023-05-03T10:37:10.204Z,36.63
2023-05-03T10:39:37.669Z,34.87
2023-05-03T10:42:08.807Z,43.27
2023-05-03T10:44:40.517Z,35.17
2023-05-03T10:47:11.400Z,38.53
2023-05-03T10:49:37.852Z,40.17
2023-05-03T10:52:36.076Z,39.20
2023-05-03T10:55:03.077Z,37.27
2023-05-03T10:57:32.125Z,39.70
2023-05-03T10:59:58.966Z,44.30
2023-05-03T11:02:36.054Z,45.00
2023-05-03T11:05:09.285Z,35.73
2023-05-03T11:07:35.882Z,36.27
2023-05-03T11:10:16.320Z,43.30
2023-05-03T11:12:42.746Z,40.60
2023-05-03T11:15:11.130Z,37.40
2023-05-03T11:17:41.005Z,34.20
2023-05-03T11:20:10.891Z,36.13
2023-05-03T11:22:37.767Z,35.13
2023-05-03T11:25:04.623Z,40.30
2023-05-03T11:27:31.233Z,32.37
2023-05-03T11:29:59.302Z,35.20
2023-05-03T11:32:27.518Z,39.23
2023-05-03T11:34:54.085Z,40.13
2023-05-03T11:37:20.538Z,31.40
2023-05-03T11:39:47.807Z,34.83
2023-05-03T11:42:14.305Z,36.67
2023-05-03T11:44:41.057Z,36.07
2023-05-03T11:47:09.158Z,30.53
2023-05-03T11:49:35.717Z,28.70
2023-05-03T11:52:02.229Z,31.83
2023-05-03T11:54:30.033Z,28.80
2023-05-03T11:56:57.934Z,24.07
2023-05-03T11:59:39.067Z,21.60
2023-05-03T12:02:07.836Z,21.27
2023-05-03T12:04:35.056Z,23.23
2023-05-03T12:07:03.601Z,29.10
2023-05-03T12:09:31.725Z,33.73
2023-05-03T12:11:59.584Z,25.07
2023-05-03T12:14:29.490Z,21.27
2023-05-03T12:16:56.985Z,21.87
2023-05-03T12:19:31.378Z,18.93
2023-05-03T12:24:33.515Z,20.40
2023-05-03T12:27:02.709Z,24.90
2023-05-03T12:29:34.069Z,16.90
2023-05-03T12:32:03.449Z,18.83
2023-05-03T12:34:34.623Z,11.73
2023-05-03T12:37:04.940Z,11.63
2023-05-03T12:39:32.968Z,11.67
2023-05-03T12:44:46.023Z,12.10
2023-05-03T12:47:19.554Z,11.00
2023-05-03T12:49:54.381Z,17.67
2023-05-03T12:52:37.112Z,15.50
2023-05-03T12:55:10.452Z,14.40
2023-05-03T12:57:38.132Z,18.27
2023-05-03T13:00:14.528Z,13.73
2023-05-03T13:03:21.230Z,14.40
2023-05-03T13:05:35.198Z,16.93
2023-05-03T13:08:09.419Z,16.37
2023-05-03T13:10:39.006Z,16.80
2023-05-03T13:13:06.740Z,14.53
2023-05-03T13:15:36.536Z,17.73
2023-05-03T13:18:06.563Z,18.67
2023-05-03T13:20:34.719Z,19.53
2023-05-03T13:23:01.264Z,16.63
2023-05-03T13:25:27.783Z,13.57
2023-05-03T13:27:54.487Z,14.43
2023-05-03T13:30:22.207Z,14.87
2023-05-03T13:32:51.875Z,12.43
2023-05-03T13:35:18.489Z,11.53
2023-05-03T13:37:45.006Z,12.67
2023-05-03T13:40:12.259Z,12.53
2023-05-03T13:42:38.707Z,15.83
2023-05-03T13:45:05.502Z,12.60
2023-05-03T13:47:47.253Z,17.43
2023-05-03T13:50:18.840Z,13.63
2023-05-03T13:52:45.495Z,13.87
2023-05-03T13:55:11.948Z,13.30
2023-05-03T13:57:38.432Z,18.83
2023-05-03T14:00:07.280Z,9.63
2023-05-03T14:02:33.992Z,11.47
2023-05-03T14:05:00.784Z,8.50
2023-05-03T14:07:27.263Z,8.70
2023-05-03T14:09:53.702Z,11.13
2023-05-03T14:12:20.239Z,10.93
2023-05-03T14:14:46.740Z,8.37
2023-05-03T14:17:13.351Z,7.67
2023-05-03T14:19:39.898Z,6.90
2023-05-03T14:22:06.671Z,12.20
2023-05-03T14:24:33.186Z,7.80
2023-05-03T14:27:00.381Z,12.87
2023-05-03T14:29:27.260Z,6.70
2023-05-03T14:31:54.462Z,6.90
2023-05-03T14:34:21.003Z,6.50
2023-05-03T14:36:47.503Z,5.40
2023-05-03T14:39:16.926Z,5.73
2023-05-03T14:41:46.286Z,5.73
2023-05-03T14:44:12.835Z,5.07
2023-05-03T14:46:39.616Z,6.00
2023-05-03T14:49:07.024Z,5.90
2023-05-03T14:51:33.658Z,3.43
2023-05-03T14:54:00.382Z,3.80
2023-05-03T14:56:27.780Z,5.93
2023-05-03T14:58:54.204Z,4.33
2023-05-03T15:01:21.863Z,4.70
2023-05-03T15:03:49.547Z,5.60
2023-05-03T15:06:23.598Z,4.60
2023-05-03T15:08:51.339Z,7.17
2023-05-03T15:11:18.013Z,15.03
2023-05-03T15:13:44.504Z,6.30
2023-05-03T15:16:11.371Z,4.67
2023-05-03T15:18:37.890Z,7.30
2023-05-03T15:21:04.667Z,6.00
2023-05-03T15:23:31.110Z,7.30
2023-05-03T15:25:58.151Z,11.80
2023-05-03T15:28:24.610Z,6.57
2023-05-03T15:30:51.139Z,6.10
2023-05-03T15:33:17.765Z,5.40
2023-05-03T15:35:44.242Z,6.60
2023-05-03T15:38:10.717Z,5.00
2023-05-03T15:40:37.169Z,6.10
2023-05-03T15:43:03.670Z,5.90
2023-05-03T15:45:30.255Z,5.70
2023-05-03T15:47:57.076Z,6.90
2023-05-03T15:50:23.721Z,6.00
2023-05-03T15:52:50.233Z,8.50
2023-05-03T15:55:19.108Z,12.33
2023-05-03T15:57:45.619Z,6.53
2023-05-03T16:00:12.896Z,7.03
2023-05-03T16:02:40.333Z,9.30
2023-05-03T16:05:07.240Z,6.20
2023-05-03T16:07:33.923Z,8.50
2023-05-03T16:10:00.814Z,5.77
2023-05-03T16:12:27.781Z,7.83
2023-05-03T16:14:54.763Z,8.20
2023-05-03T16:17:22.014Z,6.13
2023-05-03T16:19:48.701Z,5.93
2023-05-03T16:22:15.399Z,6.37
2023-05-03T16:24:41.861Z,11.70
2023-05-03T16:27:08.414Z,8.50
2023-05-03T16:29:36.975Z,6.20
2023-05-03T16:32:04.219Z,6.20
2023-05-03T16:34:31.432Z,6.70
2023-05-03T16:36:57.873Z,6.70
2023-05-03T16:39:24.301Z,6.70
2023-05-03T16:41:50.759Z,5.40
2023-05-03T16:44:19.158Z,6.63
2023-05-03T16:46:46.579Z,6.60
2023-05-03T16:49:12.998Z,7.17
2023-05-03T16:51:40.796Z,9.63
2023-05-03T16:54:07.308Z,6.70
2023-05-03T16:56:33.870Z,6.63
2023-05-03T16:59:00.297Z,6.30
2023-05-03T17:01:26.765Z,10.47
2023-05-03T17:03:53.496Z,4.83
2023-05-03T17:06:20.321Z,5.80
2023-05-03T17:08:46.829Z,6.13
2023-05-03T17:11:14.413Z,5.23
2023-05-03T17:13:41.485Z,5.53
2023-05-03T17:16:09.993Z,5.73
2023-05-03T17:18:37.494Z,10.00
2023-05-03T17:21:04.794Z,5.70
2023-05-03T17:23:35.958Z,4.60
2023-05-03T17:26:04.346Z,5.13
2023-05-03T17:28:32.558Z,6.83
2023-05-03T17:30:59.620Z,4.37
2023-05-03T17:33:26.716Z,10.80
2023-05-03T17:35:55.510Z,5.43
2023-05-03T17:38:23.091Z,7.30
2023-05-03T17:40:49.659Z,7.07
2023-05-03T17:43:17.547Z,5.13
2023-05-03T17:45:45.449Z,12.70
2023-05-03T17:48:14.829Z,8.10
2023-05-03T17:50:46.112Z,6.50
2023-05-03T17:53:12.696Z,5.90
2023-05-03T17:55:39.172Z,6.47
2023-05-03T17:58:06.422Z,6.07
2023-05-03T18:00:33.600Z,5.27
2023-05-03T18:03:00.280Z,7.93
2023-05-03T18:05:27.313Z,5.33
2023-05-03T18:07:54.037Z,6.27
2023-05-03T18:10:20.734Z,4.87
2023-05-03T18:12:47.193Z,3.67
2023-05-03T18:15:15.482Z,5.67
2023-05-03T18:17:42.731Z,4.00
2023-05-03T18:20:09.697Z,5.13
2023-05-03T18:22:37.357Z,5.50
2023-05-03T18:25:07.339Z,6.20
2023-05-03T18:27:36.658Z,6.20
2023-05-03T18:30:06.984Z,6.00
2023-05-03T18:32:34.073Z,5.50
2023-05-03T18:35:00.740Z,4.60
2023-05-03T18:37:27.711Z,4.80
2023-05-03T18:39:54.220Z,4.00
2023-05-03T18:42:21.316Z,6.53
2023-05-03T18:44:48.208Z,4.00
2023-05-03T18:47:16.182Z,6.50
2023-05-03T18:49:46.917Z,4.07
2023-05-03T18:52:13.383Z,6.40
2023-05-03T18:54:39.965Z,7.87
2023-05-03T18:57:06.512Z,4.97
2023-05-03T18:59:33.028Z,11.63
2023-05-03T19:01:59.510Z,5.77
2023-05-03T19:04:26.042Z,6.37
2023-05-03T19:06:52.808Z,9.90
2023-05-03T19:09:19.449Z,6.07
2023-05-03T19:11:46.003Z,7.40
2023-05-03T19:14:12.959Z,8.00
2023-05-03T19:16:39.488Z,8.43
2023-05-03T19:19:06.864Z,10.70
2023-05-03T19:21:34.880Z,9.57
2023-05-03T19:24:01.346Z,14.00
2023-05-03T19:26:27.935Z,12.67
2023-05-03T19:28:54.352Z,10.90
2023-05-03T19:31:20.863Z,12.53
2023-05-03T19:33:47.488Z,17.53
2023-05-03T19:36:14.763Z,11.80
2023-05-03T19:38:41.376Z,12.60
2023-05-03T19:41:11.941Z,11.90
2023-05-03T19:43:39.068Z,13.30
2023-05-03T19:46:06.190Z,14.53
2023-05-03T19:48:33.044Z,13.77
2023-05-03T19:51:00.209Z,18.77
2023-05-03T19:53:27.924Z,12.53
2023-05-03T19:56:02.029Z,15.43
2023-05-03T19:58:28.970Z,15.80
2023-05-03T20:00:58.650Z,21.93
2023-05-03T20:03:25.380Z,17.90
2023-05-03T20:05:51.842Z,14.93
2023-05-03T20:08:18.300Z,16.20
2023-05-03T20:10:46.392Z,15.93
2023-05-03T20:13:13.248Z,16.37
2023-05-03T20:15:39.825Z,14.50
2023-05-03T20:18:06.418Z,15.67
2023-05-03T20:20:32.992Z,19.10
2023-05-03T20:22:59.434Z,16.83
2023-05-03T20:25:26.032Z,15.60
2023-05-03T20:27:52.604Z,16.10
2023-05-03T20:30:19.297Z,16.60
2023-05-03T20:32:46.021Z,13.80
2023-05-03T20:35:13.518Z,17.10
2023-05-03T20:37:40.886Z,17.60
2023-05-03T20:40:10.553Z,17.80
2023-05-03T20:42:39.670Z,19.40
2023-05-03T20:45:07.636Z,20.10
2023-05-03T20:47:35.509Z,17.40
2023-05-03T20:50:03.003Z,17.17
2023-05-03T20:52:30.511Z,16.00
2023-05-03T20:54:57.767Z,18.53
2023-05-03T20:57:38.941Z,23.40
2023-05-03T21:00:07.387Z,15.57
2023-05-03T21:02:37.862Z,17.53
2023-05-03T21:05:05.513Z,13.60
2023-05-03T21:07:32.877Z,23.53
2023-05-03T21:10:02.812Z,18.23
2023-05-03T21:12:30.674Z,16.10
2023-05-03T21:15:00.374Z,18.37
2023-05-03T21:17:27.749Z,15.17
2023-05-03T21:19:57.416Z,14.80
2023-05-03T21:22:25.021Z,19.20
2023-05-03T21:24:52.036Z,16.50
2023-05-03T21:27:20.616Z,14.87
2023-05-03T21:29:48.205Z,14.97
2023-05-03T21:32:15.323Z,16.50
2023-05-03T21:34:48.315Z,15.50
2023-05-03T21:37:18.946Z,15.37
2023-05-03T21:40:01.548Z,15.90
2023-05-03T21:42:33.713Z,13.03
2023-05-03T21:45:03.942Z,17.13
2023-05-03T21:47:31.413Z,18.37
2023-05-03T21:49:59.360Z,18.33
2023-05-03T21:52:29.388Z,17.67
2023-05-03T21:54:57.667Z,15.00
2023-05-03T21:57:25.333Z,15.07
2023-05-03T21:59:54.201Z,14.03
2023-05-03T22:02:22.730Z,14.40
2023-05-03T22:04:50.362Z,14.47
2023-05-03T22:07:17.619Z,15.77
2023-05-03T22:09:48.335Z,14.87
2023-05-03T22:12:23.255Z,14.57
2023-05-03T22:14:56.578Z,18.37
2023-05-03T22:17:25.068Z,16.97
2023-05-03T22:19:55.072Z,21.33
2023-05-03T22:22:22.326Z,17.00
2023-05-03T22:24:51.197Z,17.10
2023-05-03T22:27:24.205Z,18.43
2023-05-03T22:29:51.384Z,22.60
2023-05-03T22:32:21.962Z,19.00
2023-05-03T22:34:51.965Z,18.53
2023-05-03T22:37:19.445Z,21.40
2023-05-03T22:39:52.329Z,20.83
2023-05-03T22:42:26.956Z,15.63
2023-05-03T22:44:55.784Z,17.97
2023-05-03T22:47:24.580Z,18.33
2023-05-03T22:49:54.448Z,16.63
2023-05-03T22:52:30.420Z,19.93
2023-05-03T22:55:03.686Z,19.03
2023-05-03T22:57:33.202Z,19.80
2023-05-03T23:00:02.537Z,23.33
2023-05-03T23:02:33.329Z,18.60
2023-05-03T23:05:02.979Z,21.87
2023-05-03T23:07:31.772Z,24.63
2023-05-03T23:10:04.066Z,19.70
2023-05-03T23:12:31.624Z,19.23
2023-05-03T23:14:58.871Z,19.57
2023-05-03T23:17:26.205Z,20.70
2023-05-03T23:19:53.764Z,22.30
2023-05-03T23:22:22.011Z,19.53
2023-05-03T23:24:48.951Z,26.40
2023-05-03T23:27:16.199Z,22.30
2023-05-03T23:29:43.702Z,18.33
2023-05-03T23:32:12.491Z,26.50
2023-05-03T23:34:39.809Z,18.87
2023-05-03T23:37:09.627Z,21.47
2023-05-03T23:39:36.771Z,22.30
2023-05-03T23:42:09.995Z,20.30
2023-05-03T23:44:53.050Z,21.57
2023-05-03T23:47:34.857Z,22.70
2023-05-03T23:50:02.038Z,22.57
2023-05-03T23:52:32.250Z,21.70
2023-05-03T23:54:59.572Z,22.53
2023-05-03T23:57:27.289Z,23.53
2023-05-03T23:59:54.550Z,22.60
